createdAt,value
2019-05-12T00:00:41.235Z,0
2019-05-12T00:01:53.000Z,0
2019-05-12T00:03:05.000Z,0
2019-05-12T00:04:17.000Z,0
2019-05-12T00:05:29.000Z,0
2019-05-12T00:06:42.196Z,0
2019-05-12T00:07:54.406Z,0
2019-05-12T00:09:06.595Z,0
2019-05-12T00:10:18.000Z,0
2019-05-12T00:12:43.000Z,20
2019-05-12T00:13:55.000Z,20
2019-05-12T00:15:07.557Z,20
2019-05-12T00:16:19.000Z,20
2019-05-12T00:17:31.000Z,20
2019-05-12T00:18:44.132Z,20
2019-05-12T00:19:56.323Z,20
2019-05-12T00:21:08.525Z,20
2019-05-12T00:22:20.728Z,20
2019-05-12T00:24:45.089Z,20
2019-05-12T00:25:57.000Z,20
2019-05-12T00:27:09.000Z,20
2019-05-12T00:28:21.000Z,20
2019-05-12T00:29:33.858Z,20
2019-05-12T00:30:46.054Z,20
2019-05-12T00:31:58.000Z,20
2019-05-12T00:33:10.496Z,20
2019-05-12T00:34:22.626Z,20
2019-05-12T00:36:47.031Z,20
2019-05-12T00:37:59.000Z,20
2019-05-12T00:40:23.000Z,20
2019-05-12T00:41:35.000Z,20
2019-05-12T00:42:47.975Z,20
2019-05-12T00:44:00.163Z,20
2019-05-12T00:45:12.351Z,20
2019-05-12T00:46:24.608Z,20
2019-05-12T00:48:48.000Z,20
2019-05-12T00:50:01.118Z,20
2019-05-12T00:51:13.310Z,20
2019-05-12T00:52:25.000Z,20
2019-05-12T00:53:37.000Z,20
2019-05-12T00:54:49.899Z,20
2019-05-12T00:56:02.000Z,20
2019-05-12T00:57:14.269Z,20
2019-05-12T00:58:26.450Z,20
2019-05-12T01:00:50.918Z,20
2019-05-12T01:02:03.000Z,20
2019-05-12T01:03:15.000Z,20
2019-05-12T01:04:27.000Z,20
2019-05-12T01:05:39.000Z,20
2019-05-12T01:06:51.086Z,20
2019-05-12T01:08:03.976Z,20
2019-05-12T01:09:16.000Z,20
2019-05-12T01:10:28.000Z,20
2019-05-12T01:12:52.764Z,20
2019-05-12T01:14:04.000Z,16
2019-05-12T01:15:17.241Z,20
2019-05-12T01:16:29.000Z,20
2019-05-12T01:17:41.000Z,20
2019-05-12T01:18:53.072Z,20
2019-05-12T01:20:05.000Z,20
2019-05-12T01:21:18.099Z,20
2019-05-12T01:22:30.000Z,20
2019-05-12T01:24:54.000Z,20
2019-05-12T01:26:06.878Z,20
2019-05-12T01:27:19.050Z,20
2019-05-12T01:28:31.000Z,20
2019-05-12T01:29:43.000Z,20
2019-05-12T01:30:55.611Z,20
2019-05-12T01:32:07.000Z,20
2019-05-12T01:33:20.035Z,20
2019-05-12T01:34:32.000Z,20
2019-05-12T01:35:44.391Z,20
2019-05-12T01:38:08.000Z,20
2019-05-12T01:39:20.000Z,20
2019-05-12T01:40:33.000Z,20
2019-05-12T01:41:45.000Z,20
2019-05-12T01:42:57.549Z,20
2019-05-12T01:44:09.000Z,20
2019-05-12T01:45:21.971Z,20
2019-05-12T01:46:34.179Z,20
2019-05-12T01:48:58.000Z,20
2019-05-12T01:50:10.000Z,20
2019-05-12T01:51:22.000Z,20
2019-05-12T01:52:35.000Z,20
2019-05-12T01:53:47.275Z,20
2019-05-12T01:54:59.004Z,20
2019-05-12T01:56:11.000Z,20
2019-05-12T01:57:23.849Z,20
2019-05-12T01:58:36.000Z,20
2019-05-12T02:01:00.000Z,20
2019-05-12T02:02:12.606Z,20
2019-05-12T02:03:24.000Z,20
2019-05-12T02:04:36.000Z,20
2019-05-12T02:05:49.174Z,20
2019-05-12T02:07:01.367Z,20
2019-05-12T02:08:13.000Z,20
2019-05-12T02:09:25.761Z,20
2019-05-12T02:10:37.934Z,20
2019-05-12T02:13:02.000Z,20
2019-05-12T02:14:14.000Z,20
2019-05-12T02:15:26.732Z,20
2019-05-12T02:16:38.000Z,20
2019-05-12T02:17:51.094Z,20
2019-05-12T02:19:03.275Z,20
2019-05-12T02:20:15.000Z,20
2019-05-12T02:21:27.674Z,20
2019-05-12T02:22:39.000Z,20
2019-05-12T02:23:52.000Z,20
2019-05-12T02:25:04.236Z,20
2019-05-12T02:26:16.000Z,20
2019-05-12T02:27:28.716Z,20
2019-05-12T02:28:40.000Z,20
2019-05-12T02:29:52.000Z,32
2019-05-12T02:31:05.018Z,0
2019-05-12T02:32:17.387Z,0
2019-05-12T02:33:29.599Z,0
2019-05-12T02:34:41.000Z,0
2019-05-12T02:37:06.000Z,0
2019-05-12T02:38:18.000Z,0
2019-05-12T02:39:30.596Z,0
2019-05-12T02:40:42.000Z,4
2019-05-12T02:43:07.203Z,4
2019-05-12T02:44:19.000Z,4
2019-05-12T02:45:31.571Z,0
2019-05-12T02:46:43.735Z,4
2019-05-12T02:49:08.000Z,8
2019-05-12T02:50:20.000Z,4
2019-05-12T02:51:32.000Z,8
2019-05-12T02:52:44.000Z,8
2019-05-12T02:53:56.884Z,8
2019-05-12T02:55:09.106Z,12
2019-05-12T02:56:21.000Z,12
2019-05-12T02:57:33.594Z,16
2019-05-12T02:58:45.000Z,20
2019-05-12T03:01:10.000Z,24
2019-05-12T03:02:22.000Z,28
2019-05-12T03:03:34.530Z,32
2019-05-12T03:04:46.000Z,36
2019-05-12T03:05:58.000Z,40
2019-05-12T03:07:11.008Z,44
2019-05-12T03:08:23.000Z,48
2019-05-12T03:09:35.389Z,52
2019-05-12T03:10:47.000Z,56
2019-05-12T03:13:11.000Z,76
2019-05-12T03:14:24.156Z,80
2019-05-12T03:15:36.033Z,88
2019-05-12T03:16:48.000Z,96
2019-05-12T03:18:00.072Z,104
2019-05-12T03:19:12.913Z,112
2019-05-12T03:20:25.000Z,120
2019-05-12T03:21:37.313Z,132
2019-05-12T03:22:49.000Z,148
2019-05-12T03:25:13.000Z,172
2019-05-12T03:26:26.000Z,184
2019-05-12T03:27:38.272Z,200
2019-05-12T03:28:50.000Z,216
2019-05-12T03:30:02.643Z,232
2019-05-12T03:31:14.834Z,248
2019-05-12T03:32:27.000Z,268
2019-05-12T03:33:39.224Z,288
2019-05-12T03:34:51.399Z,308
2019-05-12T03:37:15.791Z,352
2019-05-12T03:38:28.000Z,368
2019-05-12T03:39:40.000Z,392
2019-05-12T03:40:52.000Z,420
2019-05-12T03:42:04.548Z,444
2019-05-12T03:43:16.758Z,472
2019-05-12T03:44:28.000Z,500
2019-05-12T03:45:41.136Z,532
2019-05-12T03:46:53.000Z,564
2019-05-12T03:49:17.000Z,644
2019-05-12T03:50:29.000Z,684
2019-05-12T03:51:42.213Z,720
2019-05-12T03:52:54.000Z,760
2019-05-12T03:54:06.474Z,808
2019-05-12T03:55:18.685Z,856
2019-05-12T03:56:30.000Z,908
2019-05-12T03:57:43.000Z,960
2019-05-12T03:58:55.226Z,1012
2019-05-12T04:01:19.000Z,1124
2019-05-12T04:02:31.000Z,1188
2019-05-12T04:03:43.000Z,1248
2019-05-12T04:04:56.000Z,1308
2019-05-12T04:06:08.000Z,1364
2019-05-12T04:07:20.593Z,1428
2019-05-12T04:08:32.000Z,1484
2019-05-12T04:09:44.967Z,1544
2019-05-12T04:10:57.000Z,1608
2019-05-12T04:13:21.623Z,1728
2019-05-12T04:14:33.000Z,1788
2019-05-12T04:15:45.000Z,1852
2019-05-12T04:16:58.000Z,1912
2019-05-12T04:18:10.000Z,1976
2019-05-12T04:19:22.499Z,2036
2019-05-12T04:20:34.000Z,2096
2019-05-12T04:21:46.087Z,2156
2019-05-12T04:22:59.000Z,2220
2019-05-12T04:25:23.468Z,2392
2019-05-12T04:26:35.000Z,2484
2019-05-12T04:27:47.000Z,2580
2019-05-12T04:29:00.000Z,2672
2019-05-12T04:30:12.000Z,2780
2019-05-12T04:31:24.402Z,2900
2019-05-12T04:32:36.000Z,3020
2019-05-12T04:33:48.809Z,3140
2019-05-12T04:35:00.000Z,3256
2019-05-12T04:37:25.000Z,3484
2019-05-12T04:38:37.000Z,3632
2019-05-12T04:39:49.000Z,3780
2019-05-12T04:41:01.000Z,3908
2019-05-12T04:42:14.123Z,4040
2019-05-12T04:43:26.343Z,4176
2019-05-12T04:44:38.000Z,4304
2019-05-12T04:45:50.711Z,4448
2019-05-12T04:47:02.000Z,4560
2019-05-12T04:48:15.109Z,4668
2019-05-12T04:49:27.283Z,4796
2019-05-12T04:50:39.000Z,4844
2019-05-12T04:51:51.000Z,5028
2019-05-12T04:53:03.858Z,5132
2019-05-12T04:54:16.000Z,5456
2019-05-12T04:55:28.244Z,5948
2019-05-12T04:56:40.000Z,6644
2019-05-12T04:57:52.705Z,6496
2019-05-12T04:59:04.944Z,6752
2019-05-12T05:01:29.000Z,7012
2019-05-12T05:02:41.000Z,6780
2019-05-12T05:03:53.000Z,7076
2019-05-12T05:05:05.000Z,8444
2019-05-12T05:06:18.072Z,8088
2019-05-12T05:07:30.159Z,7960
2019-05-12T05:08:42.000Z,7796
2019-05-12T05:09:54.547Z,6500
2019-05-12T05:11:06.000Z,5708
2019-05-12T05:13:31.000Z,5908
2019-05-12T05:14:43.000Z,5944
2019-05-12T05:15:55.000Z,5628
2019-05-12T05:17:07.000Z,5624
2019-05-12T05:18:19.886Z,5736
2019-05-12T05:19:32.000Z,5728
2019-05-12T05:21:56.004Z,6228
2019-05-12T05:23:08.650Z,5936
2019-05-12T05:25:33.000Z,5800
2019-05-12T05:26:45.332Z,5852
2019-05-12T05:27:57.406Z,5916
2019-05-12T05:29:09.000Z,5992
2019-05-12T05:30:21.944Z,6136
2019-05-12T05:31:33.985Z,6312
2019-05-12T05:32:46.000Z,6464
2019-05-12T05:33:58.389Z,6640
2019-05-12T05:35:10.000Z,6760
2019-05-12T05:37:34.956Z,6720
2019-05-12T05:38:47.000Z,6556
2019-05-12T05:39:59.313Z,6480
2019-05-12T05:41:11.000Z,6416
2019-05-12T05:43:35.906Z,6232
2019-05-12T05:44:48.090Z,6192
2019-05-12T05:46:00.294Z,6256
2019-05-12T05:47:12.000Z,6428
2019-05-12T05:49:36.000Z,6820
2019-05-12T05:50:49.000Z,6896
2019-05-12T05:52:01.000Z,6840
2019-05-12T05:53:13.000Z,6756
2019-05-12T05:54:25.000Z,6688
2019-05-12T05:55:37.818Z,6648
2019-05-12T05:56:49.000Z,6716
2019-05-12T05:58:02.197Z,6884
2019-05-12T05:59:14.000Z,7080
2019-05-12T06:00:26.577Z,7336
2019-05-12T06:01:38.000Z,7548
2019-05-12T06:02:50.965Z,7712
2019-05-12T06:04:03.240Z,7768
2019-05-12T06:05:15.000Z,7640
2019-05-12T06:06:27.000Z,7548
2019-05-12T06:07:39.074Z,7508
2019-05-12T06:08:51.921Z,7564
2019-05-12T06:10:04.112Z,7688
2019-05-12T06:13:40.000Z,7944
2019-05-12T06:14:52.897Z,7976
2019-05-12T06:16:05.058Z,8076
2019-05-12T06:17:17.000Z,8352
2019-05-12T06:18:29.000Z,8596
2019-05-12T06:19:41.645Z,8632
2019-05-12T06:20:53.828Z,8836
2019-05-12T06:22:06.105Z,9108
2019-05-12T06:23:18.219Z,9284
2019-05-12T06:26:54.824Z,9292
2019-05-12T06:28:06.000Z,9372
2019-05-12T06:29:19.000Z,9288
2019-05-12T06:30:31.000Z,9332
2019-05-12T06:31:43.574Z,9288
2019-05-12T06:32:55.842Z,9176
2019-05-12T06:34:07.937Z,9068
2019-05-12T06:35:20.130Z,9292
2019-05-12T06:37:44.000Z,9080
2019-05-12T06:38:56.000Z,9068
2019-05-12T06:40:08.000Z,9284
2019-05-12T06:41:21.000Z,9304
2019-05-12T06:42:33.000Z,9380
2019-05-12T06:43:45.483Z,9356
2019-05-12T06:44:57.667Z,9236
2019-05-12T06:46:09.000Z,9384
2019-05-12T06:47:22.004Z,9460
2019-05-12T06:48:34.000Z,8752
2019-05-12T06:49:46.000Z,8420
2019-05-12T06:50:58.000Z,8464
2019-05-12T06:52:10.804Z,8188
2019-05-12T06:53:22.000Z,8440
2019-05-12T06:55:47.375Z,8076
2019-05-12T06:56:59.000Z,7988
2019-05-12T06:58:11.773Z,7680
2019-05-12T06:59:23.000Z,7152
2019-05-12T07:01:48.000Z,7284
2019-05-12T07:03:00.000Z,7988
2019-05-12T07:04:12.000Z,7948
2019-05-12T07:05:24.000Z,7876
2019-05-12T07:06:37.010Z,7812
2019-05-12T07:07:49.490Z,7832
2019-05-12T07:09:01.000Z,7836
2019-05-12T07:10:13.000Z,7576
2019-05-12T07:11:25.000Z,7516
2019-05-12T07:13:50.000Z,7280
2019-05-12T07:15:02.464Z,7212
2019-05-12T07:16:14.000Z,7192
2019-05-12T07:17:26.000Z,6940
2019-05-12T07:18:38.000Z,6876
2019-05-12T07:19:51.221Z,5996
2019-05-12T07:21:03.394Z,6572
2019-05-12T07:22:15.611Z,6412
2019-05-12T07:23:27.000Z,6364
2019-05-12T07:25:52.000Z,6792
2019-05-12T07:27:04.368Z,6872
2019-05-12T07:28:16.055Z,6920
2019-05-12T07:29:28.000Z,6812
2019-05-12T07:30:40.000Z,6928
2019-05-12T07:31:53.114Z,6852
2019-05-12T07:33:05.000Z,6820
2019-05-12T07:34:17.000Z,6572
2019-05-12T07:35:29.000Z,6580
2019-05-12T07:37:54.083Z,6572
2019-05-12T07:39:06.281Z,6732
2019-05-12T07:40:18.622Z,6712
2019-05-12T07:41:30.000Z,6688
2019-05-12T07:42:42.000Z,6380
2019-05-12T07:43:55.030Z,6408
2019-05-12T07:45:07.000Z,6384
2019-05-12T07:46:19.428Z,6476
2019-05-12T07:47:31.000Z,6140
2019-05-12T07:48:43.000Z,6124
2019-05-12T07:49:56.007Z,6100
2019-05-12T07:51:08.000Z,6056
2019-05-12T07:52:20.000Z,6000
2019-05-12T07:53:32.000Z,5932
2019-05-12T07:54:44.000Z,5968
2019-05-12T07:55:56.970Z,5944
2019-05-12T07:57:09.141Z,5756
2019-05-12T07:58:21.343Z,5592
2019-05-12T07:59:33.644Z,5496
2019-05-12T08:00:45.000Z,5464
2019-05-12T08:01:57.000Z,5520
2019-05-12T08:03:10.000Z,5464
2019-05-12T08:04:22.000Z,5524
2019-05-12T08:05:34.000Z,5444
2019-05-12T08:06:46.000Z,5372
2019-05-12T08:07:58.871Z,5396
2019-05-12T08:09:11.000Z,5436
2019-05-12T08:10:23.280Z,5536
2019-05-12T08:11:35.449Z,5620
2019-05-12T08:12:47.000Z,5380
2019-05-12T08:15:11.000Z,5380
2019-05-12T08:16:24.000Z,5352
2019-05-12T08:17:36.000Z,5748
2019-05-12T08:18:48.000Z,5936
2019-05-12T08:20:00.079Z,6612
2019-05-12T08:21:12.000Z,7168
2019-05-12T08:22:25.179Z,7220
2019-05-12T08:23:37.000Z,7048
2019-05-12T08:24:49.000Z,6856
2019-05-12T08:26:01.000Z,6772
2019-05-12T08:27:13.000Z,6620
2019-05-12T08:28:26.000Z,6620
2019-05-12T08:29:38.000Z,6540
2019-05-12T08:30:50.000Z,6868
2019-05-12T08:32:02.692Z,7120
2019-05-12T08:33:14.884Z,7508
2019-05-12T08:34:27.095Z,7856
2019-05-12T08:35:39.000Z,8212
2019-05-12T08:38:03.000Z,8904
2019-05-12T08:39:15.000Z,9076
2019-05-12T08:40:28.000Z,8804
2019-05-12T08:41:40.000Z,8280
2019-05-12T08:42:52.000Z,7968
2019-05-12T08:44:04.613Z,7732
2019-05-12T08:45:16.000Z,7740
2019-05-12T08:46:28.996Z,7776
2019-05-12T08:47:41.018Z,7760
2019-05-12T08:50:05.000Z,7712
2019-05-12T08:51:17.000Z,8048
2019-05-12T08:52:29.000Z,8348
2019-05-12T08:53:42.000Z,8776
2019-05-12T08:54:54.000Z,9132
2019-05-12T08:56:06.052Z,9340
2019-05-12T08:57:18.000Z,9348
2019-05-12T08:58:30.921Z,9260
2019-05-12T08:59:43.000Z,9212
2019-05-12T09:02:07.000Z,8492
2019-05-12T09:03:19.000Z,8232
2019-05-12T09:04:31.926Z,8048
2019-05-12T09:05:44.000Z,7840
2019-05-12T09:06:56.000Z,7776
2019-05-12T09:08:08.044Z,7976
2019-05-12T09:09:20.627Z,8128
2019-05-12T09:10:32.853Z,8200
2019-05-12T09:11:44.000Z,8232
2019-05-12T09:14:09.000Z,8488
2019-05-12T09:15:21.851Z,9108
2019-05-12T09:16:33.780Z,9312
2019-05-12T09:17:45.000Z,9488
2019-05-12T09:18:58.291Z,9624
2019-05-12T09:20:10.348Z,9728
2019-05-12T09:21:22.000Z,9796
2019-05-12T09:22:34.761Z,9764
2019-05-12T09:23:46.943Z,9508
2019-05-12T09:24:59.133Z,9048
2019-05-12T09:26:11.000Z,8556
2019-05-12T09:27:23.000Z,7936
2019-05-12T09:28:35.000Z,7912
2019-05-12T09:29:47.000Z,7932
2019-05-12T09:31:00.000Z,8192
2019-05-12T09:32:12.026Z,8232
2019-05-12T09:33:24.522Z,8100
2019-05-12T09:34:36.000Z,7932
2019-05-12T09:35:48.848Z,7692
2019-05-12T09:38:13.022Z,6848
2019-05-12T09:39:25.428Z,6788
2019-05-12T09:41:49.000Z,6712
2019-05-12T09:43:01.000Z,6888
2019-05-12T09:44:14.181Z,7076
2019-05-12T09:45:26.370Z,7200
2019-05-12T09:46:38.058Z,7036
2019-05-12T09:47:50.000Z,6684
2019-05-12T09:49:02.000Z,6320
2019-05-12T09:50:15.000Z,6088
2019-05-12T09:51:27.033Z,6080
2019-05-12T09:52:39.519Z,6004
2019-05-12T09:53:51.000Z,6028
2019-05-12T09:55:03.968Z,6100
2019-05-12T09:56:16.097Z,6204
2019-05-12T09:57:28.000Z,6200
2019-05-12T09:58:40.000Z,6008
2019-05-12T09:59:52.686Z,5740
2019-05-12T10:01:04.000Z,5564
2019-05-12T10:02:17.180Z,5500
2019-05-12T10:03:29.000Z,5408
2019-05-12T10:04:41.000Z,5404
2019-05-12T10:05:53.000Z,5460
2019-05-12T10:07:05.000Z,5428
2019-05-12T10:08:18.029Z,5364
2019-05-12T10:09:30.319Z,5244
2019-05-12T10:10:42.425Z,5164
2019-05-12T10:11:54.000Z,5112
2019-05-12T10:13:06.000Z,5080
2019-05-12T10:14:18.999Z,5060
2019-05-12T10:15:31.000Z,5056
2019-05-12T10:16:43.000Z,5020
2019-05-12T10:17:55.000Z,5020
2019-05-12T10:19:07.000Z,5008
2019-05-12T10:20:19.097Z,4988
2019-05-12T10:21:32.158Z,4988
2019-05-12T10:22:44.000Z,4976
2019-05-12T10:23:56.000Z,4968
2019-05-12T10:25:08.000Z,4924
2019-05-12T10:26:20.000Z,4900
2019-05-12T10:27:33.000Z,4916
2019-05-12T10:28:45.303Z,4840
2019-05-12T10:29:57.000Z,4828
2019-05-12T10:31:09.796Z,4632
2019-05-12T10:32:21.008Z,4556
2019-05-12T10:33:34.000Z,4664
2019-05-12T10:34:46.000Z,4620
2019-05-12T10:35:58.000Z,4580
2019-05-12T10:37:10.671Z,4592
2019-05-12T10:38:22.000Z,4688
2019-05-12T10:39:35.000Z,4784
2019-05-12T10:40:47.000Z,4964
2019-05-12T10:41:59.000Z,5020
2019-05-12T10:43:11.632Z,5072
2019-05-12T10:44:23.900Z,5152
2019-05-12T10:45:35.000Z,5124
2019-05-12T10:46:48.000Z,5240
2019-05-12T10:48:00.411Z,5320
2019-05-12T10:50:24.786Z,5316
2019-05-12T10:51:36.994Z,5320
2019-05-12T10:52:49.241Z,5324
2019-05-12T10:54:01.000Z,5320
2019-05-12T10:55:13.000Z,5300
2019-05-12T10:56:25.738Z,5212
2019-05-12T10:57:37.000Z,5228
2019-05-12T10:58:50.151Z,5156
2019-05-12T11:00:02.000Z,5692
2019-05-12T11:01:14.000Z,6060
2019-05-12T11:02:26.724Z,6052
2019-05-12T11:03:38.918Z,5836
2019-05-12T11:04:51.100Z,6060
2019-05-12T11:06:03.000Z,5600
2019-05-12T11:07:15.496Z,5600
2019-05-12T11:08:27.696Z,5620
2019-05-12T11:09:39.000Z,5648
2019-05-12T11:10:52.099Z,5460
2019-05-12T11:12:04.279Z,5676
2019-05-12T11:13:16.000Z,5640
2019-05-12T11:14:28.000Z,5520
2019-05-12T11:15:40.000Z,5324
2019-05-12T11:16:53.000Z,5348
2019-05-12T11:18:05.000Z,5188
2019-05-12T11:19:17.432Z,5228
2019-05-12T11:20:29.061Z,5388
2019-05-12T11:21:41.000Z,5708
2019-05-12T11:22:54.016Z,6000
2019-05-12T11:24:06.000Z,6284
2019-05-12T11:25:18.510Z,6708
2019-05-12T11:26:30.000Z,6692
2019-05-12T11:27:42.000Z,6596
2019-05-12T11:28:55.077Z,6800
2019-05-12T11:30:07.000Z,6660
2019-05-12T11:31:19.000Z,6448
2019-05-12T11:32:31.642Z,6148
2019-05-12T11:33:43.000Z,5888
2019-05-12T11:34:55.946Z,5692
2019-05-12T11:36:08.000Z,5500
2019-05-12T11:37:20.000Z,5368
2019-05-12T11:38:32.522Z,5196
2019-05-12T11:39:44.000Z,5148
2019-05-12T11:40:56.916Z,5060
2019-05-12T11:42:09.000Z,5100
2019-05-12T11:43:21.000Z,5124
2019-05-12T11:44:33.484Z,5084
2019-05-12T11:45:45.000Z,4896
2019-05-12T11:46:57.960Z,4936
2019-05-12T11:48:10.043Z,4960
2019-05-12T11:50:34.000Z,4708
2019-05-12T11:51:46.650Z,4740
2019-05-12T11:52:58.000Z,4676
2019-05-12T11:54:10.000Z,4628
2019-05-12T11:55:23.203Z,4612
2019-05-12T11:56:35.414Z,4612
2019-05-12T11:57:47.000Z,4632
2019-05-12T11:58:59.808Z,4692
2019-05-12T12:00:11.000Z,4676
2019-05-12T12:02:36.372Z,4792
2019-05-12T12:03:48.000Z,4840
2019-05-12T12:05:00.813Z,4916
2019-05-12T12:06:12.000Z,4952
2019-05-12T12:07:25.147Z,4972
2019-05-12T12:08:37.000Z,4936
2019-05-12T12:09:49.000Z,4656
2019-05-12T12:11:01.724Z,5104
2019-05-12T12:12:13.091Z,5148
2019-05-12T12:14:38.000Z,5192
2019-05-12T12:15:50.000Z,5256
2019-05-12T12:17:02.697Z,5344
2019-05-12T12:18:14.000Z,5392
2019-05-12T12:19:27.000Z,5348
2019-05-12T12:20:39.270Z,5408
2019-05-12T12:21:51.000Z,5472
2019-05-12T12:23:03.672Z,5640
2019-05-12T12:24:15.000Z,5640
2019-05-12T12:26:40.237Z,5264
2019-05-12T12:27:52.000Z,4980
2019-05-12T12:29:04.000Z,5016
2019-05-12T12:30:16.000Z,5080
2019-05-12T12:31:29.000Z,5112
2019-05-12T12:32:41.197Z,5156
2019-05-12T12:33:53.000Z,5208
2019-05-12T12:35:05.000Z,5188
2019-05-12T12:36:17.000Z,5104
2019-05-12T12:37:30.047Z,5116
2019-05-12T12:38:42.155Z,5136
2019-05-12T12:39:54.036Z,5136
2019-05-12T12:42:18.000Z,5112
2019-05-12T12:43:30.000Z,5100
2019-05-12T12:44:43.125Z,5132
2019-05-12T12:45:55.000Z,5228
2019-05-12T12:47:07.000Z,5288
2019-05-12T12:48:19.000Z,5380
2019-05-12T12:49:31.910Z,5408
2019-05-12T12:50:44.000Z,5544
2019-05-12T12:51:56.309Z,5660
2019-05-12T12:53:08.478Z,5552
2019-05-12T12:54:20.000Z,5524
2019-05-12T12:56:45.077Z,5380
2019-05-12T12:57:57.000Z,5496
2019-05-12T12:59:09.000Z,5484
2019-05-12T13:00:21.652Z,5548
2019-05-12T13:01:33.000Z,5564
2019-05-12T13:02:46.137Z,5608
2019-05-12T13:03:58.000Z,5520
2019-05-12T13:05:10.000Z,5520
2019-05-12T13:06:22.000Z,5496
2019-05-12T13:07:34.000Z,5512
2019-05-12T13:08:46.987Z,5504
2019-05-12T13:09:59.000Z,5500
2019-05-12T13:11:11.382Z,5480
2019-05-12T13:12:23.000Z,5424
2019-05-12T13:14:47.000Z,5408
2019-05-12T13:16:00.000Z,5352
2019-05-12T13:17:12.353Z,5340
2019-05-12T13:18:24.000Z,5404
2019-05-12T13:19:36.000Z,5436
2019-05-12T13:20:48.921Z,5400
2019-05-12T13:22:01.115Z,5428
2019-05-12T13:23:13.344Z,5468
2019-05-12T13:24:25.000Z,5476
2019-05-12T13:26:49.000Z,5488
2019-05-12T13:28:02.000Z,5504
2019-05-12T13:29:14.000Z,5512
2019-05-12T13:30:26.000Z,5532
2019-05-12T13:31:38.000Z,5508
2019-05-12T13:32:50.851Z,5524
2019-05-12T13:34:03.068Z,5588
2019-05-12T13:35:15.000Z,5612
2019-05-12T13:36:27.436Z,5644
2019-05-12T13:38:51.000Z,5720
2019-05-12T13:40:04.000Z,5888
2019-05-12T13:41:16.000Z,5696
2019-05-12T13:42:28.000Z,5844
2019-05-12T13:43:40.000Z,6404
2019-05-12T13:44:52.779Z,7116
2019-05-12T13:46:04.985Z,7396
2019-05-12T13:47:17.000Z,7964
2019-05-12T13:48:29.000Z,8344
2019-05-12T13:50:53.000Z,8640
2019-05-12T13:52:05.000Z,9056
2019-05-12T13:53:18.000Z,9320
2019-05-12T13:54:30.000Z,8628
2019-05-12T13:55:42.000Z,8548
2019-05-12T13:56:54.711Z,8344
2019-05-12T13:58:06.000Z,8160
2019-05-12T13:59:19.000Z,8112
2019-05-12T14:00:31.000Z,8328
2019-05-12T14:02:55.000Z,9064
2019-05-12T14:04:07.000Z,8828
2019-05-12T14:05:20.000Z,8724
2019-05-12T14:06:32.000Z,8568
2019-05-12T14:07:44.468Z,8356
2019-05-12T14:08:56.646Z,8168
2019-05-12T14:10:08.865Z,8296
2019-05-12T14:11:21.063Z,8856
2019-05-12T14:12:33.000Z,9732
2019-05-12T14:13:45.447Z,9580
2019-05-12T14:14:57.000Z,8640
2019-05-12T14:16:09.000Z,7836
2019-05-12T14:17:21.000Z,7420
2019-05-12T14:18:34.000Z,7452
2019-05-12T14:19:46.000Z,8052
2019-05-12T14:20:58.057Z,9000
2019-05-12T14:22:10.000Z,10368
2019-05-12T14:23:22.978Z,11468
2019-05-12T14:24:35.000Z,10980
2019-05-12T14:26:59.000Z,8248
2019-05-12T14:28:11.000Z,8532
2019-05-12T14:29:23.000Z,9592
2019-05-12T14:30:36.000Z,9712
2019-05-12T14:31:48.000Z,10408
2019-05-12T14:33:00.000Z,10660
2019-05-12T14:34:12.000Z,10224
2019-05-12T14:35:24.000Z,9812
2019-05-12T14:36:37.201Z,9016
2019-05-12T14:39:01.000Z,8156
2019-05-12T14:40:13.717Z,8632
2019-05-12T14:41:25.871Z,9364
2019-05-12T14:42:38.000Z,10204
2019-05-12T14:43:50.000Z,10676
2019-05-12T14:45:02.470Z,10692
2019-05-12T14:46:14.000Z,9976
2019-05-12T14:47:26.858Z,9048
2019-05-12T14:48:39.000Z,8264
2019-05-12T14:51:03.000Z,6860
2019-05-12T14:52:15.000Z,6836
2019-05-12T14:53:27.000Z,7008
2019-05-12T14:54:39.000Z,7108
2019-05-12T14:55:52.185Z,6896
2019-05-12T14:57:04.405Z,6624
2019-05-12T14:58:16.000Z,6704
2019-05-12T14:59:28.793Z,6812
2019-05-12T15:00:40.000Z,7232
2019-05-12T15:03:05.000Z,7348
2019-05-12T15:04:17.000Z,7500
2019-05-12T15:05:29.000Z,6352
2019-05-12T15:06:41.000Z,7212
2019-05-12T15:07:54.129Z,7320
2019-05-12T15:09:06.335Z,6884
2019-05-12T15:10:18.531Z,6000
2019-05-12T15:11:30.000Z,5284
2019-05-12T15:12:42.000Z,5212
2019-05-12T15:13:55.108Z,5436
2019-05-12T15:15:07.000Z,5596
2019-05-12T15:16:19.000Z,5512
2019-05-12T15:17:31.679Z,5392
2019-05-12T15:18:43.000Z,5288
2019-05-12T15:19:56.000Z,5168
2019-05-12T15:21:08.255Z,5132
2019-05-12T15:22:20.000Z,5184
2019-05-12T15:23:32.655Z,5324
2019-05-12T15:24:44.000Z,5256
2019-05-12T15:25:57.000Z,5444
2019-05-12T15:27:09.230Z,5384
2019-05-12T15:28:21.000Z,5236
2019-05-12T15:29:33.000Z,5340
2019-05-12T15:30:45.000Z,6060
2019-05-12T15:31:57.994Z,22880
2019-05-12T15:33:10.190Z,9992
2019-05-12T15:34:22.000Z,6792
2019-05-12T15:35:34.059Z,9920
2019-05-12T15:36:46.000Z,38208
2019-05-12T15:39:11.000Z,38464
2019-05-12T15:40:23.359Z,29408
2019-05-12T15:41:35.000Z,5232
2019-05-12T15:42:47.000Z,4748
2019-05-12T15:43:59.000Z,4884
2019-05-12T15:45:12.146Z,26656
2019-05-12T15:46:24.000Z,30656
2019-05-12T15:47:36.516Z,30304
2019-05-12T15:48:48.000Z,27360
2019-05-12T15:51:13.000Z,23840
2019-05-12T15:52:25.000Z,23616
2019-05-12T15:53:37.486Z,18496
2019-05-12T15:54:49.000Z,24448
2019-05-12T15:56:01.093Z,24448
2019-05-12T15:57:14.065Z,22720
2019-05-12T15:58:26.000Z,22528
2019-05-12T15:59:38.000Z,6032
2019-05-12T16:00:50.000Z,8072
2019-05-12T16:03:15.000Z,4996
2019-05-12T16:04:27.000Z,5884
2019-05-12T16:05:39.041Z,26912
2019-05-12T16:06:51.000Z,25312
2019-05-12T16:08:03.000Z,27488
2019-05-12T16:09:15.988Z,6304
2019-05-12T16:10:28.269Z,5520
2019-05-12T16:11:40.396Z,23104
2019-05-12T16:12:52.057Z,23872
2019-05-12T16:15:16.097Z,22336
2019-05-12T16:16:29.000Z,4436
2019-05-12T16:17:41.000Z,19712
2019-05-12T16:18:53.000Z,22976
2019-05-12T16:20:05.000Z,24544
2019-05-12T16:21:17.926Z,25024
2019-05-12T16:22:30.130Z,22880
2019-05-12T16:23:42.331Z,9712
2019-05-12T16:24:54.000Z,21568
2019-05-12T16:27:18.000Z,22016
2019-05-12T16:28:31.000Z,21664
2019-05-12T16:29:43.284Z,23232
2019-05-12T16:30:55.000Z,22400
2019-05-12T16:32:07.000Z,21888
2019-05-12T16:33:19.869Z,20864
2019-05-12T16:34:32.000Z,20256
2019-05-12T16:35:44.267Z,19360
2019-05-12T16:36:56.000Z,19360
2019-05-12T16:39:20.000Z,21216
2019-05-12T16:40:33.000Z,21152
2019-05-12T16:41:45.000Z,20320
2019-05-12T16:42:57.000Z,21632
2019-05-12T16:44:09.602Z,23520
2019-05-12T16:45:21.789Z,23072
2019-05-12T16:46:33.000Z,19328
2019-05-12T16:47:46.193Z,16928
2019-05-12T16:48:58.000Z,17856
2019-05-12T16:51:22.766Z,19872
2019-05-12T16:52:34.000Z,19392
2019-05-12T16:53:47.000Z,17696
2019-05-12T16:54:59.000Z,16992
2019-05-12T16:56:11.005Z,17536
2019-05-12T16:57:23.761Z,18400
2019-05-12T16:58:35.000Z,18368
2019-05-12T16:59:48.133Z,17984
2019-05-12T17:01:00.000Z,17312
2019-05-12T17:03:24.000Z,14560
2019-05-12T17:04:36.000Z,13536
2019-05-12T17:05:49.000Z,13824
2019-05-12T17:07:01.000Z,14196
2019-05-12T17:08:13.000Z,11952
2019-05-12T17:09:25.660Z,5804
2019-05-12T17:10:37.871Z,3912
2019-05-12T17:11:50.065Z,3580
2019-05-12T17:13:02.000Z,3380
2019-05-12T17:15:26.648Z,3484
2019-05-12T17:16:38.000Z,3564
2019-05-12T17:17:51.023Z,3544
2019-05-12T17:19:03.000Z,3512
2019-05-12T17:20:15.000Z,3400
2019-05-12T17:21:27.609Z,3304
2019-05-12T17:22:39.000Z,3248
2019-05-12T17:23:51.999Z,3160
2019-05-12T17:25:04.000Z,3120
2019-05-12T17:27:28.000Z,3180
2019-05-12T17:28:40.000Z,3236
2019-05-12T17:29:52.000Z,3256
2019-05-12T17:31:05.000Z,3216
2019-05-12T17:32:17.000Z,3104
2019-05-12T17:33:29.541Z,2976
2019-05-12T17:34:41.731Z,2860
2019-05-12T17:35:53.945Z,2764
2019-05-12T17:37:06.000Z,2680
2019-05-12T17:39:30.000Z,2552
2019-05-12T17:40:42.000Z,2484
2019-05-12T17:41:54.000Z,2428